sensor_id;sensor_type;location;lat;lon;timestamp;pressure;altitude;pressure_sealevel;temperature;humidity
44297;BME280;51842;47.450;8.654;2023-07-22T00:01:10;95567.03;;;16.09;100.00
44297;BME280;51842;47.450;8.654;2023-07-22T00:03:35;95570.81;;;16.08;100.00
44297;BME280;51842;47.450;8.654;2023-07-22T00:06:07;95564.13;;;16.05;100.00
44297;BME280;51842;47.450;8.654;2023-07-22T00:08:35;95561.47;;;16.05;100.00
44297;BME280;51842;47.450;8.654;2023-07-22T00:11:01;95548.63;;;16.02;100.00
44297;BME280;51842;47.450;8.654;2023-07-22T00:13:27;95543.25;;;16.02;100.00
44297;BME280;51842;47.450;8.654;2023-07-22T00:15:54;95550.81;;;16.00;100.00
44297;BME280;51842;47.450;8.654;2023-07-22T00:18:20;95546.03;;;15.97;100.00
44297;BME280;51842;47.450;8.654;2023-07-22T00:20:46;95550.88;;;15.95;100.00
44297;BME280;51842;47.450;8.654;2023-07-22T00:23:11;95557.69;;;15.92;100.00
44297;BME280;51842;47.450;8.654;2023-07-22T00:25:37;95555.88;;;15.88;100.00
44297;BME280;51842;47.450;8.654;2023-07-22T00:28:03;95558.09;;;15.86;100.00
44297;BME280;51842;47.450;8.654;2023-07-22T00:30:32;95554.88;;;15.84;100.00
44297;BME280;51842;47.450;8.654;2023-07-22T00:32:58;95553.59;;;15.81;100.00
44297;BME280;51842;47.450;8.654;2023-07-22T00:35:23;95550.41;;;15.79;100.00
44297;BME280;51842;47.450;8.654;2023-07-22T00:37:49;95544.16;;;15.84;100.00
44297;BME280;51842;47.450;8.654;2023-07-22T00:40:16;95544.16;;;15.84;100.00
44297;BME280;51842;47.450;8.654;2023-07-22T00:42:42;95546.84;;;15.84;100.00
44297;BME280;51842;47.450;8.654;2023-07-22T00:45:09;95543.34;;;15.83;100.00
44297;BME280;51842;47.450;8.654;2023-07-22T00:47:35;95546.03;;;15.83;100.00
44297;BME280;51842;47.450;8.654;2023-07-22T00:50:05;95540.16;;;15.81;100.00
44297;BME280;51842;47.450;8.654;2023-07-22T00:52:33;95536.69;;;15.81;100.00
44297;BME280;51842;47.450;8.654;2023-07-22T00:54:59;95540.16;;;15.81;100.00
44297;BME280;51842;47.450;8.654;2023-07-22T00:57:25;95536.69;;;15.81;100.00
44297;BME280;51842;47.450;8.654;2023-07-22T00:59:51;95528.13;;;15.79;100.00
44297;BME280;51842;47.450;8.654;2023-07-22T01:02:18;95529.50;;;15.76;100.00
44297;BME280;51842;47.450;8.654;2023-07-22T01:04:45;95534.09;;;15.76;100.00
44297;BME280;51842;47.450;8.654;2023-07-22T01:07:13;95524.25;;;15.71;100.00
44297;BME280;51842;47.450;8.654;2023-07-22T01:09:43;95523.47;;;15.70;100.00
44297;BME280;51842;47.450;8.654;2023-07-22T01:12:10;95531.81;;;15.69;100.00
44297;BME280;51842;47.450;8.654;2023-07-22T01:14:38;95532.69;;;15.64;100.00
44297;BME280;51842;47.450;8.654;2023-07-22T01:17:07;95528.19;;;15.60;100.00
44297;BME280;51842;47.450;8.654;2023-07-22T01:19:35;95524.78;;;15.54;100.00
44297;BME280;51842;47.450;8.654;2023-07-22T01:22:03;95519.81;;;15.47;100.00
44297;BME280;51842;47.450;8.654;2023-07-22T01:24:31;95524.00;;;15.40;100.00
44297;BME280;51842;47.450;8.654;2023-07-22T01:27:00;95538.88;;;15.32;100.00
44297;BME280;51842;47.450;8.654;2023-07-22T01:29:26;95535.28;;;15.23;100.00
44297;BME280;51842;47.450;8.654;2023-07-22T01:31:54;95533.28;;;15.15;100.00
44297;BME280;51842;47.450;8.654;2023-07-22T01:34:22;95529.03;;;15.14;100.00
44297;BME280;51842;47.450;8.654;2023-07-22T01:36:49;95523.44;;;15.10;100.00
44297;BME280;51842;47.450;8.654;2023-07-22T01:39:16;95518.44;;;15.03;100.00
44297;BME280;51842;47.450;8.654;2023-07-22T01:41:43;95527.66;;;14.97;100.00
44297;BME280;51842;47.450;8.654;2023-07-22T01:44:09;95525.66;;;14.89;100.00
44297;BME280;51842;47.450;8.654;2023-07-22T01:46:34;95521.97;;;14.85;100.00
44297;BME280;51842;47.450;8.654;2023-07-22T01:49:05;95520.97;;;14.81;100.00
44297;BME280;51842;47.450;8.654;2023-07-22T01:51:32;95520.53;;;14.74;100.00
44297;BME280;51842;47.450;8.654;2023-07-22T01:53:58;95517.13;;;14.68;100.00
44297;BME280;51842;47.450;8.654;2023-07-22T01:56:23;95521.50;;;14.64;100.00
44297;BME280;51842;47.450;8.654;2023-07-22T01:58:50;95515.69;;;14.57;100.00
44297;BME280;51842;47.450;8.654;2023-07-22T02:01:16;95522.25;;;14.51;100.00
44297;BME280;51842;47.450;8.654;2023-07-22T02:03:44;95536.47;;;14.46;100.00
44297;BME280;51842;47.450;8.654;2023-07-22T02:06:12;95535.16;;;14.44;100.00
44297;BME280;51842;47.450;8.654;2023-07-22T02:08:38;95532.56;;;14.39;100.00
44297;BME280;51842;47.450;8.654;2023-07-22T02:11:06;95534.22;;;14.34;100.00
44297;BME280;51842;47.450;8.654;2023-07-22T02:13:35;95542.59;;;14.28;100.00
44297;BME280;51842;47.450;8.654;2023-07-22T02:16:02;95538.63;;;14.25;100.00
44297;BME280;51842;47.450;8.654;2023-07-22T02:18:28;95526.88;;;14.21;100.00
44297;BME280;51842;47.450;8.654;2023-07-22T02:20:56;95526.09;;;14.21;100.00
44297;BME280;51842;47.450;8.654;2023-07-22T02:23:24;95521.31;;;14.18;100.00
44297;BME280;51842;47.450;8.654;2023-07-22T02:25:54;95527.78;;;14.17;100.00
44297;BME280;51842;47.450;8.654;2023-07-22T02:28:21;95536.59;;;14.17;100.00
44297;BME280;51842;47.450;8.654;2023-07-22T02:30:52;95534.72;;;14.18;100.00
44297;BME280;51842;47.450;8.654;2023-07-22T02:33:19;95537.59;;;14.21;100.00
44297;BME280;51842;47.450;8.654;2023-07-22T02:35:45;95527.41;;;14.23;100.00
44297;BME280;51842;47.450;8.654;2023-07-22T02:38:11;95529.00;;;14.24;100.00
44297;BME280;51842;47.450;8.654;2023-07-22T02:40:37;95531.41;;;14.26;100.00
44297;BME280;51842;47.450;8.654;2023-07-22T02:43:03;95527.09;;;14.25;100.00
44297;BME280;51842;47.450;8.654;2023-07-22T02:45:29;95522.84;;;14.24;100.00
44297;BME280;51842;47.450;8.654;2023-07-22T02:47:55;95521.53;;;14.21;100.00
44297;BME280;51842;47.450;8.654;2023-07-22T02:50:21;95517.06;;;14.17;100.00
44297;BME280;51842;47.450;8.654;2023-07-22T02:52:47;95514.94;;;14.14;100.00
44297;BME280;51842;47.450;8.654;2023-07-22T02:55:16;95517.69;;;14.08;100.00
44297;BME280;51842;47.450;8.654;2023-07-22T02:57:47;95523.63;;;14.05;100.00
44297;BME280;51842;47.450;8.654;2023-07-22T03:00:16;95521.72;;;14.06;100.00
44297;BME280;51842;47.450;8.654;2023-07-22T03:03:00;95511.59;;;14.03;100.00
44297;BME280;51842;47.450;8.654;2023-07-22T03:05:30;95511.09;;;14.01;100.00
44297;BME280;51842;47.450;8.654;2023-07-22T03:07:58;95512.16;;;14.00;100.00
44297;BME280;51842;47.450;8.654;2023-07-22T03:10:24;95509.28;;;13.96;100.00
44297;BME280;51842;47.450;8.654;2023-07-22T03:12:55;95507.97;;;13.94;100.00
44297;BME280;51842;47.450;8.654;2023-07-22T03:15:24;95509.84;;;13.93;100.00
44297;BME280;51842;47.450;8.654;2023-07-22T03:17:52;95511.50;;;13.89;100.00
44297;BME280;51842;47.450;8.654;2023-07-22T03:20:18;95512.09;;;13.86;100.00
44297;BME280;51842;47.450;8.654;2023-07-22T03:22:45;95510.78;;;13.83;100.00
44297;BME280;51842;47.450;8.654;2023-07-22T03:25:16;95513.72;;;13.82;100.00
44297;BME280;51842;47.450;8.654;2023-07-22T03:27:44;95518.28;;;13.81;100.00
44297;BME280;51842;47.450;8.654;2023-07-22T03:30:14;95513.72;;;13.82;100.00
44297;BME280;51842;47.450;8.654;2023-07-22T03:32:47;95514.53;;;13.82;100.00
44297;BME280;51842;47.450;8.654;2023-07-22T03:35:13;95519.59;;;13.84;100.00
44297;BME280;51842;47.450;8.654;2023-07-22T03:37:40;95518.22;;;13.86;100.00
44297;BME280;51842;47.450;8.654;2023-07-22T03:40:07;95515.56;;;13.86;100.00
44297;BME280;51842;47.450;8.654;2023-07-22T03:42:36;95503.75;;;13.87;100.00
44297;BME280;51842;47.450;8.654;2023-07-22T03:45:02;95505.06;;;13.90;100.00
44297;BME280;51842;47.450;8.654;2023-07-22T03:47:28;95501.88;;;13.88;100.00
44297;BME280;51842;47.450;8.654;2023-07-22T03:49:53;95508.31;;;13.87;100.00
44297;BME280;51842;47.450;8.654;2023-07-22T03:52:19;95500.59;;;13.85;100.00
44297;BME280;51842;47.450;8.654;2023-07-22T03:54:45;95509.69;;;13.84;100.00
44297;BME280;51842;47.450;8.654;2023-07-22T03:57:11;95504.63;;;13.83;100.00
44297;BME280;51842;47.450;8.654;2023-07-22T03:59:36;95511.03;;;13.82;100.00
44297;BME280;51842;47.450;8.654;2023-07-22T04:02:03;95511.66;;;13.79;100.00
44297;BME280;51842;47.450;8.654;2023-07-22T04:04:29;95522.94;;;13.76;100.00
44297;BME280;51842;47.450;8.654;2023-07-22T04:06:54;95527.97;;;13.77;100.00
44297;BME280;51842;47.450;8.654;2023-07-22T04:09:20;95522.34;;;13.79;100.00
44297;BME280;51842;47.450;8.654;2023-07-22T04:11:46;95512.44;;;13.79;100.00
44297;BME280;51842;47.450;8.654;2023-07-22T04:14:12;95519.91;;;13.82;100.00
44297;BME280;51842;47.450;8.654;2023-07-22T04:16:39;95525.81;;;13.79;100.00
44297;BME280;51842;47.450;8.654;2023-07-22T04:19:05;95527.41;;;13.80;100.00
44297;BME280;51842;47.450;8.654;2023-07-22T04:21:31;95523.63;;;13.81;100.00
44297;BME280;51842;47.450;8.654;2023-07-22T04:23:57;95519.69;;;13.79;100.00
44297;BME280;51842;47.450;8.654;2023-07-22T04:26:23;95522.63;;;13.77;100.00
44297;BME280;51842;47.450;8.654;2023-07-22T04:28:48;95532.31;;;13.73;100.00
44297;BME280;51842;47.450;8.654;2023-07-22T04:31:14;95535.00;;;13.73;100.00
44297;BME280;51842;47.450;8.654;2023-07-22T04:33:40;95535.78;;;13.74;100.00
44297;BME280;51842;47.450;8.654;2023-07-22T04:36:07;95534.19;;;13.73;100.00
44297;BME280;51842;47.450;8.654;2023-07-22T04:38:33;95538.00;;;13.67;100.00
44297;BME280;51842;47.450;8.654;2023-07-22T04:40:59;95536.94;;;13.68;100.00
44297;BME280;51842;47.450;8.654;2023-07-22T04:43:27;95545.22;;;13.66;100.00
44297;BME280;51842;47.450;8.654;2023-07-22T04:45:55;95538.25;;;13.70;100.00
44297;BME280;51842;47.450;8.654;2023-07-22T04:48:21;95544.09;;;13.72;100.00
44297;BME280;51842;47.450;8.654;2023-07-22T04:50:51;95541.41;;;13.72;100.00
44297;BME280;51842;47.450;8.654;2023-07-22T04:53:17;95540.13;;;13.70;100.00
44297;BME280;51842;47.450;8.654;2023-07-22T04:55:43;95539.31;;;13.69;100.00
44297;BME280;51842;47.450;8.654;2023-07-22T04:58:09;95543.28;;;13.72;100.00
44297;BME280;51842;47.450;8.654;2023-07-22T05:00:37;95548.81;;;13.80;100.00
44297;BME280;51842;47.450;8.654;2023-07-22T05:03:04;95545.00;;;13.86;100.00
44297;BME280;51842;47.450;8.654;2023-07-22T05:05:30;95554.19;;;14.04;100.00
44297;BME280;51842;47.450;8.654;2023-07-22T05:07:55;95558.09;;;14.12;100.00
44297;BME280;51842;47.450;8.654;2023-07-22T05:10:22;95564.84;;;14.28;100.00
44297;BME280;51842;47.450;8.654;2023-07-22T05:12:48;95565.22;;;14.41;100.00
44297;BME280;51842;47.450;8.654;2023-07-22T05:15:14;95570.19;;;14.52;100.00
44297;BME280;51842;47.450;8.654;2023-07-22T05:17:41;95562.19;;;14.66;100.00
44297;BME280;51842;47.450;8.654;2023-07-22T05:20:07;95566.69;;;14.71;100.00
44297;BME280;51842;47.450;8.654;2023-07-22T05:22:37;95569.28;;;14.76;100.00
44297;BME280;51842;47.450;8.654;2023-07-22T05:25:04;95558.72;;;14.85;100.00
44297;BME280;51842;47.450;8.654;2023-07-22T05:27:30;95567.78;;;14.89;100.00
44297;BME280;51842;47.450;8.654;2023-07-22T05:29:56;95564.78;;;14.90;100.00
44297;BME280;51842;47.450;8.654;2023-07-22T05:32:22;95571.16;;;14.94;100.00
44297;BME280;51842;47.450;8.654;2023-07-22T05:34:47;95570.34;;;15.13;100.00
44297;BME280;51842;47.450;8.654;2023-07-22T05:37:13;95573.09;;;15.40;100.00
44297;BME280;51842;47.450;8.654;2023-07-22T05:39:39;95575.22;;;15.57;100.00
44297;BME280;51842;47.450;8.654;2023-07-22T05:42:05;95578.56;;;15.68;100.00
44297;BME280;51842;47.450;8.654;2023-07-22T05:44:31;95574.88;;;15.78;100.00
44297;BME280;51842;47.450;8.654;2023-07-22T05:46:57;95582.53;;;15.84;100.00
44297;BME280;51842;47.450;8.654;2023-07-22T05:49:22;95585.53;;;15.96;100.00
44297;BME280;51842;47.450;8.654;2023-07-22T05:51:48;95585.91;;;16.04;100.00
44297;BME280;51842;47.450;8.654;2023-07-22T05:54:14;95582.22;;;16.13;100.00
44297;BME280;51842;47.450;8.654;2023-07-22T05:56:40;95586.78;;;16.40;100.00
44297;BME280;51842;47.450;8.654;2023-07-22T05:59:07;95597.03;;;16.52;100.00
44297;BME280;51842;47.450;8.654;2023-07-22T06:01:32;95599.00;;;16.60;100.00
44297;BME280;51842;47.450;8.654;2023-07-22T06:03:58;95593.53;;;16.65;100.00
44297;BME280;51842;47.450;8.654;2023-07-22T06:06:24;95595.97;;;16.90;100.00
44297;BME280;51842;47.450;8.654;2023-07-22T06:08:50;95589.75;;;17.03;100.00
44297;BME280;51842;47.450;8.654;2023-07-22T06:11:16;95599.28;;;17.09;100.00
44297;BME280;51842;47.450;8.654;2023-07-22T06:13:42;95597.81;;;17.03;100.00
44297;BME280;51842;47.450;8.654;2023-07-22T06:16:08;95604.06;;;17.12;100.00
44297;BME280;51842;47.450;8.654;2023-07-22T06:18:34;95602.34;;;17.16;100.00
44297;BME280;51842;47.450;8.654;2023-07-22T06:21:00;95600.16;;;17.41;100.00
44297;BME280;51842;47.450;8.654;2023-07-22T06:23:26;95598.81;;;17.61;98.96
44297;BME280;51842;47.450;8.654;2023-07-22T06:25:51;95604.53;;;17.82;98.17
44297;BME280;51842;47.450;8.654;2023-07-22T06:28:17;95611.09;;;17.98;95.99
44297;BME280;51842;47.450;8.654;2023-07-22T06:30:43;95607.03;;;18.09;95.20
44297;BME280;51842;47.450;8.654;2023-07-22T06:33:09;95606.59;;;18.24;95.07
44297;BME280;51842;47.450;8.654;2023-07-22T06:35:35;95611.06;;;18.38;93.37
44297;BME280;51842;47.450;8.654;2023-07-22T06:38:00;95616.03;;;18.53;91.75
44297;BME280;51842;47.450;8.654;2023-07-22T06:40:26;95617.63;;;18.63;91.75
44297;BME280;51842;47.450;8.654;2023-07-22T06:42:52;95622.47;;;18.92;91.03
44297;BME280;51842;47.450;8.654;2023-07-22T06:45:18;95625.94;;;19.27;89.76
44297;BME280;51842;47.450;8.654;2023-07-22T06:47:44;95628.63;;;19.62;87.89
44297;BME280;51842;47.450;8.654;2023-07-22T06:50:10;95632.56;;;19.91;85.50
44297;BME280;51842;47.450;8.654;2023-07-22T06:52:36;95632.88;;;20.27;82.66
44297;BME280;51842;47.450;8.654;2023-07-22T06:55:02;95634.25;;;20.42;78.78
44297;BME280;51842;47.450;8.654;2023-07-22T06:57:29;95619.28;;;20.74;78.57
44297;BME280;51842;47.450;8.654;2023-07-22T06:59:56;95624.41;;;21.18;77.17
44297;BME280;51842;47.450;8.654;2023-07-22T07:02:22;95624.13;;;21.53;74.62
44297;BME280;51842;47.450;8.654;2023-07-22T07:04:48;95624.75;;;21.70;72.61
44297;BME280;51842;47.450;8.654;2023-07-22T07:07:15;95628.75;;;21.85;71.97
44297;BME280;51842;47.450;8.654;2023-07-22T07:09:41;95631.13;;;21.99;71.80
44297;BME280;51842;47.450;8.654;2023-07-22T07:12:08;95625.47;;;22.25;68.03
44297;BME280;51842;47.450;8.654;2023-07-22T07:14:35;95627.13;;;22.17;68.01
44297;BME280;51842;47.450;8.654;2023-07-22T07:17:01;95634.41;;;22.38;66.84
44297;BME280;51842;47.450;8.654;2023-07-22T07:19:28;95624.53;;;22.33;65.77
44297;BME280;51842;47.450;8.654;2023-07-22T07:21:54;95625.69;;;22.69;65.82
44297;BME280;51842;47.450;8.654;2023-07-22T07:24:20;95628.84;;;22.59;63.58
44297;BME280;51842;47.450;8.654;2023-07-22T07:26:46;95629.38;;;23.01;63.99
44297;BME280;51842;47.450;8.654;2023-07-22T07:29:12;95626.81;;;23.33;61.23
44297;BME280;51842;47.450;8.654;2023-07-22T07:31:38;95636.19;;;23.64;59.15
44297;BME280;51842;47.450;8.654;2023-07-22T07:34:04;95634.34;;;23.68;56.19
44297;BME280;51842;47.450;8.654;2023-07-22T07:36:31;95633.28;;;23.85;57.70
44297;BME280;51842;47.450;8.654;2023-07-22T07:38:57;95630.78;;;24.08;55.32
44297;BME280;51842;47.450;8.654;2023-07-22T07:41:23;95623.56;;;24.15;54.82
44297;BME280;51842;47.450;8.654;2023-07-22T07:43:48;95621.31;;;24.33;53.48
44297;BME280;51842;47.450;8.654;2023-07-22T07:46:25;95620.69;;;24.40;53.99
44297;BME280;51842;47.450;8.654;2023-07-22T07:48:57;95632.34;;;24.72;51.32
44297;BME280;51842;47.450;8.654;2023-07-22T07:51:25;95621.59;;;24.95;51.46
44297;BME280;51842;47.450;8.654;2023-07-22T07:53:56;95632.78;;;25.09;52.72
44297;BME280;51842;47.450;8.654;2023-07-22T07:56:23;95634.06;;;25.31;50.43
44297;BME280;51842;47.450;8.654;2023-07-22T07:58:51;95630.69;;;25.57;48.91
44297;BME280;51842;47.450;8.654;2023-07-22T08:01:17;95626.72;;;25.74;48.00
44297;BME280;51842;47.450;8.654;2023-07-22T08:03:44;95633.84;;;26.21;45.85
44297;BME280;51842;47.450;8.654;2023-07-22T08:06:11;95632.38;;;26.50;47.62
44297;BME280;51842;47.450;8.654;2023-07-22T08:08:37;95638.28;;;26.79;43.51
44297;BME280;51842;47.450;8.654;2023-07-22T08:11:12;95636.41;;;26.83;44.04
44297;BME280;51842;47.450;8.654;2023-07-22T08:13:43;95634.78;;;26.79;43.10
44297;BME280;51842;47.450;8.654;2023-07-22T08:16:12;95630.31;;;27.20;45.07
44297;BME280;51842;47.450;8.654;2023-07-22T08:18:38;95624.03;;;27.50;43.84
44297;BME280;51842;47.450;8.654;2023-07-22T08:21:05;95626.44;;;27.21;43.44
44297;BME280;51842;47.450;8.654;2023-07-22T08:23:36;95625.41;;;27.33;43.82
44297;BME280;51842;47.450;8.654;2023-07-22T08:26:03;95630.50;;;27.34;41.77
44297;BME280;51842;47.450;8.654;2023-07-22T08:28:31;95625.34;;;27.29;41.98
44297;BME280;51842;47.450;8.654;2023-07-22T08:30:58;95620.91;;;27.51;43.07
44297;BME280;51842;47.450;8.654;2023-07-22T08:33:26;95625.56;;;27.47;40.66
44297;BME280;51842;47.450;8.654;2023-07-22T08:35:52;95628.53;;;27.35;40.90
44297;BME280;51842;47.450;8.654;2023-07-22T08:38:18;95626.63;;;27.39;39.57
44297;BME280;51842;47.450;8.654;2023-07-22T08:40:44;95630.00;;;27.25;39.30
44297;BME280;51842;47.450;8.654;2023-07-22T08:43:14;95625.66;;;27.20;39.53
44297;BME280;51842;47.450;8.654;2023-07-22T08:45:41;95619.38;;;26.93;40.46
44297;BME280;51842;47.450;8.654;2023-07-22T08:48:09;95624.47;;;26.95;41.90
44297;BME280;51842;47.450;8.654;2023-07-22T08:51:24;95621.59;;;26.84;39.98
44297;BME280;51842;47.450;8.654;2023-07-22T08:53:49;95626.38;;;26.64;42.11
44297;BME280;51842;47.450;8.654;2023-07-22T08:56:16;95627.63;;;26.47;41.77
44297;BME280;51842;47.450;8.654;2023-07-22T08:58:42;95629.47;;;26.40;43.60
44297;BME280;51842;47.450;8.654;2023-07-22T09:01:09;95627.53;;;26.17;42.63
44297;BME280;51842;47.450;8.654;2023-07-22T09:03:36;95625.06;;;25.70;42.29
44297;BME280;51842;47.450;8.654;2023-07-22T09:06:04;95617.63;;;25.67;42.14
44297;BME280;51842;47.450;8.654;2023-07-22T09:08:30;95620.84;;;25.53;43.39
44297;BME280;51842;47.450;8.654;2023-07-22T09:10:56;95616.47;;;25.29;43.39
44297;BME280;51842;47.450;8.654;2023-07-22T09:13:26;95620.25;;;25.05;42.97
44297;BME280;51842;47.450;8.654;2023-07-22T09:15:53;95623.88;;;24.93;43.80
44297;BME280;51842;47.450;8.654;2023-07-22T09:18:19;95621.59;;;25.30;42.68
44297;BME280;51842;47.450;8.654;2023-07-22T09:20:44;95618.34;;;25.25;41.41
44297;BME280;51842;47.450;8.654;2023-07-22T09:23:11;95613.34;;;25.27;41.36
44297;BME280;51842;47.450;8.654;2023-07-22T09:25:41;95622.97;;;25.05;43.14
44297;BME280;51842;47.450;8.654;2023-07-22T09:28:06;95625.69;;;25.05;41.90
44297;BME280;51842;47.450;8.654;2023-07-22T09:30:38;95624.88;;;24.69;42.89
44297;BME280;51842;47.450;8.654;2023-07-22T09:33:08;95634.91;;;24.65;42.26
44297;BME280;51842;47.450;8.654;2023-07-22T09:35:47;95624.19;;;24.40;40.87
44297;BME280;51842;47.450;8.654;2023-07-22T09:38:13;95619.31;;;24.46;42.43
44297;BME280;51842;47.450;8.654;2023-07-22T09:40:41;95614.63;;;24.31;41.39
44297;BME280;51842;47.450;8.654;2023-07-22T09:43:10;95620.44;;;24.29;42.25
44297;BME280;51842;47.450;8.654;2023-07-22T09:45:38;95619.19;;;24.27;42.99
44297;BME280;51842;47.450;8.654;2023-07-22T09:48:04;95622.94;;;24.06;44.09
44297;BME280;51842;47.450;8.654;2023-07-22T09:50:31;95635.44;;;24.07;44.70
44297;BME280;51842;47.450;8.654;2023-07-22T09:52:59;95627.59;;;23.90;42.92
44297;BME280;51842;47.450;8.654;2023-07-22T09:55:29;95625.31;;;23.92;43.18
44297;BME280;51842;47.450;8.654;2023-07-22T09:58:04;95629.09;;;24.35;43.45
44297;BME280;51842;47.450;8.654;2023-07-22T10:00:35;95622.06;;;24.81;42.80
44297;BME280;51842;47.450;8.654;2023-07-22T10:03:04;95626.53;;;25.44;42.00
44297;BME280;51842;47.450;8.654;2023-07-22T10:05:35;95630.94;;;26.11;41.98
44297;BME280;51842;47.450;8.654;2023-07-22T10:08:04;95622.53;;;26.23;39.36
44297;BME280;51842;47.450;8.654;2023-07-22T10:10:39;95623.03;;;26.05;38.76
44297;BME280;51842;47.450;8.654;2023-07-22T10:13:08;95608.00;;;26.61;38.53
44297;BME280;51842;47.450;8.654;2023-07-22T10:15:34;95613.69;;;26.79;37.86
44297;BME280;51842;47.450;8.654;2023-07-22T10:18:03;95613.06;;;26.63;38.16
44297;BME280;51842;47.450;8.654;2023-07-22T10:20:29;95611.75;;;27.06;37.67
44297;BME280;51842;47.450;8.654;2023-07-22T10:22:56;95615.53;;;27.55;38.58
44297;BME280;51842;47.450;8.654;2023-07-22T10:25:22;95611.97;;;27.88;36.62
44297;BME280;51842;47.450;8.654;2023-07-22T10:27:51;95605.25;;;28.19;35.65
44297;BME280;51842;47.450;8.654;2023-07-22T10:30:18;95604.41;;;28.56;36.14
44297;BME280;51842;47.450;8.654;2023-07-22T10:32:54;95598.13;;;28.55;36.17
44297;BME280;51842;47.450;8.654;2023-07-22T10:35:34;95592.28;;;28.60;35.58
44297;BME280;51842;47.450;8.654;2023-07-22T10:38:14;95599.06;;;28.77;37.10
44297;BME280;51842;47.450;8.654;2023-07-22T10:40:55;95589.31;;;28.83;36.41
44297;BME280;51842;47.450;8.654;2023-07-22T10:43:31;95584.13;;;29.37;36.91
44297;BME280;51842;47.450;8.654;2023-07-22T10:46:12;95590.94;;;29.72;34.42
44297;BME280;51842;47.450;8.654;2023-07-22T10:48:40;95578.09;;;30.26;33.32
44297;BME280;51842;47.450;8.654;2023-07-22T10:51:13;95587.47;;;30.07;32.97
44297;BME280;51842;47.450;8.654;2023-07-22T10:53:47;95574.47;;;29.79;33.38
44297;BME280;51842;47.450;8.654;2023-07-22T10:56:19;95575.69;;;28.98;34.49
44297;BME280;51842;47.450;8.654;2023-07-22T11:12:10;95562.44;;;29.07;35.63
44297;BME280;51842;47.450;8.654;2023-07-22T11:14:52;95555.00;;;29.04;35.96
44297;BME280;51842;47.450;8.654;2023-07-22T11:17:28;95551.00;;;28.98;35.25
44297;BME280;51842;47.450;8.654;2023-07-22T11:19:57;95546.94;;;28.70;35.32
44297;BME280;51842;47.450;8.654;2023-07-22T11:22:23;95553.47;;;28.48;35.67
44297;BME280;51842;47.450;8.654;2023-07-22T11:24:49;95547.38;;;28.79;35.66
44297;BME280;51842;47.450;8.654;2023-07-22T11:27:15;95549.03;;;28.91;38.22
44297;BME280;51842;47.450;8.654;2023-07-22T11:29:41;95541.59;;;28.95;35.48
44297;BME280;51842;47.450;8.654;2023-07-22T11:32:19;95540.53;;;29.11;34.49
44297;BME280;51842;47.450;8.654;2023-07-22T11:34:48;95541.09;;;29.59;33.62
44297;BME280;51842;47.450;8.654;2023-07-22T11:37:13;95539.56;;;29.65;32.77
44297;BME280;51842;47.450;8.654;2023-07-22T11:39:41;95541.94;;;29.88;31.98
44297;BME280;51842;47.450;8.654;2023-07-22T11:42:08;95538.84;;;30.15;33.59
44297;BME280;51842;47.450;8.654;2023-07-22T11:44:34;95527.81;;;30.08;31.91
44297;BME280;51842;47.450;8.654;2023-07-22T11:47:05;95527.06;;;30.47;32.55
44297;BME280;51842;47.450;8.654;2023-07-22T11:49:40;95524.34;;;30.25;33.20
44297;BME280;51842;47.450;8.654;2023-07-22T11:52:15;95532.97;;;30.38;32.03
44297;BME280;51842;47.450;8.654;2023-07-22T11:54:45;95533.69;;;30.85;30.77
44297;BME280;51842;47.450;8.654;2023-07-22T11:57:18;95523.38;;;31.10;30.50
44297;BME280;51842;47.450;8.654;2023-07-22T11:59:47;95518.91;;;31.45;30.74
44297;BME280;51842;47.450;8.654;2023-07-22T12:02:25;95521.13;;;31.68;29.97
44297;BME280;51842;47.450;8.654;2023-07-22T12:05:00;95527.06;;;31.67;26.62
44297;BME280;51842;47.450;8.654;2023-07-22T12:07:27;95520.31;;;31.71;28.34
44297;BME280;51842;47.450;8.654;2023-07-22T12:09:56;95503.50;;;31.58;27.02
44297;BME280;51842;47.450;8.654;2023-07-22T12:12:42;95510.13;;;30.87;27.90
44297;BME280;51842;47.450;8.654;2023-07-22T12:15:20;95508.25;;;31.54;28.89
44297;BME280;51842;47.450;8.654;2023-07-22T12:20:16;95496.00;;;30.75;28.22
44297;BME280;51842;47.450;8.654;2023-07-22T12:22:43;95505.78;;;30.83;28.73
44297;BME280;51842;47.450;8.654;2023-07-22T12:25:09;95495.19;;;30.71;27.46
44297;BME280;51842;47.450;8.654;2023-07-22T12:27:37;95498.78;;;30.42;27.26
44297;BME280;51842;47.450;8.654;2023-07-22T12:30:05;95495.94;;;30.93;26.53
44297;BME280;51842;47.450;8.654;2023-07-22T12:32:31;95494.59;;;31.33;26.30
44297;BME280;51842;47.450;8.654;2023-07-22T12:34:57;95495.03;;;31.21;26.25
44297;BME280;51842;47.450;8.654;2023-07-22T12:37:22;95496.84;;;30.29;27.45
44297;BME280;51842;47.450;8.654;2023-07-22T12:39:48;95492.53;;;29.99;28.29
44297;BME280;51842;47.450;8.654;2023-07-22T12:42:14;95483.50;;;29.88;28.07
44297;BME280;51842;47.450;8.654;2023-07-22T12:44:39;95481.94;;;29.90;27.76
44297;BME280;51842;47.450;8.654;2023-07-22T12:47:06;95479.59;;;29.89;28.35
44297;BME280;51842;47.450;8.654;2023-07-22T12:49:31;95479.56;;;29.67;29.26
44297;BME280;51842;47.450;8.654;2023-07-22T12:51:57;95472.94;;;29.90;29.12
44297;BME280;51842;47.450;8.654;2023-07-22T12:54:30;95481.53;;;29.99;28.56
44297;BME280;51842;47.450;8.654;2023-07-22T12:56:56;95480.78;;;30.09;29.29
44297;BME280;51842;47.450;8.654;2023-07-22T12:59:23;95479.97;;;29.91;28.46
44297;BME280;51842;47.450;8.654;2023-07-22T13:01:48;95474.09;;;29.92;27.77
44297;BME280;51842;47.450;8.654;2023-07-22T13:04:14;95474.88;;;30.36;28.17
44297;BME280;51842;47.450;8.654;2023-07-22T13:06:40;95476.03;;;30.46;28.29
44297;BME280;51842;47.450;8.654;2023-07-22T13:09:06;95468.22;;;30.26;28.14
44297;BME280;51842;47.450;8.654;2023-07-22T13:11:31;95479.97;;;30.41;27.96
44297;BME280;51842;47.450;8.654;2023-07-22T13:13:57;95471.63;;;30.73;27.27